Time;durP1;ratioP1;P1;durP2;ratioP2;P2;SDS_P1;SDS_P2;PMS_P1;PMS_P2;Temp;Humidity;BMP_temperature;BMP_pressure;BME280_temperature;BME280_humidity;BME280_pressure;Samples;Min_cycle;Max_cycle;Signal;HPM_P1;HPM_P2
2020/12/15 00:00:33;;;;;;;34.22;19.35;;;4.60;84.30;;;2.27;86.67;95686.63;4999478;28;20034;-71
2020/12/15 00:02:59;;;;;;;39.10;20.10;;;4.60;84.20;;;2.27;86.85;95691.84;5001736;28;20506;-73
2020/12/15 00:05:24;;;;;;;35.17;18.80;;;4.60;84.10;;;2.25;86.47;95693.72;5001767;28;20045;-72
2020/12/15 00:07:50;;;;;;;34.50;20.48;;;4.60;84.00;;;2.26;87.29;95702.34;4976936;28;20038;-71
2020/12/15 00:10:15;;;;;;;38.55;19.67;;;4.60;84.10;;;2.25;87.16;95698.91;4971549;28;20622;-71
2020/12/15 00:12:41;;;;;;;34.42;19.52;;;4.60;84.00;;;2.24;87.17;95701.66;4979541;28;20121;-70
2020/12/15 00:15:08;;;;;;;33.83;19.20;;;4.50;84.00;;;2.23;86.57;95693.06;4976733;28;20070;-71
2020/12/15 00:17:33;;;;;;;35.50;19.17;;;4.50;84.20;;;2.22;86.45;95675.88;4983328;28;20116;-72
2020/12/15 00:19:59;;;;;;;30.02;18.30;;;4.50;84.10;;;2.19;87.04;95673.56;4965725;28;20125;-71
2020/12/15 00:22:24;;;;;;;31.38;18.23;;;4.50;84.00;;;2.18;86.74;95661.56;4961076;28;20053;-70
2020/12/15 00:24:50;;;;;;;35.22;19.00;;;4.40;84.10;;;2.17;86.85;95659.13;4948709;28;20136;-72
2020/12/15 00:27:15;;;;;;;30.58;17.63;;;4.40;83.80;;;2.17;86.76;95665.13;4952511;28;20112;-71
2020/12/15 00:29:41;;;;;;;30.90;18.90;;;4.40;83.70;;;2.15;86.55;95657.50;4967490;23;20145;-68
2020/12/15 00:32:09;;;;;;;29.33;18.48;;;4.40;83.70;;;2.15;86.90;95656.69;4994853;28;20162;-67
2020/12/15 00:34:34;;;;;;;32.30;19.00;;;4.40;83.80;;;2.14;86.96;95645.47;4982350;28;20030;-67
2020/12/15 00:37:00;;;;;;;32.80;20.35;;;4.40;83.80;;;2.15;86.65;95643.69;5011015;28;20048;-68
2020/12/15 00:39:25;;;;;;;32.35;19.40;;;4.40;83.80;;;2.17;86.95;95639.19;4994923;28;20041;-68
2020/12/15 00:41:51;;;;;;;34.00;20.27;;;4.40;83.90;;;2.15;87.10;95635.91;5001906;28;20089;-67
2020/12/15 00:44:17;;;;;;;33.35;19.38;;;4.40;83.80;;;2.18;86.57;95650.38;4981260;28;20092;-67
2020/12/15 00:46:42;;;;;;;32.40;19.13;;;4.40;83.70;;;2.18;86.65;95661.56;5004304;28;20568;-68
2020/12/15 00:49:08;;;;;;;31.70;18.90;;;4.50;83.50;;;2.16;86.05;95668.69;5008904;28;20046;-68
2020/12/15 00:51:33;;;;;;;34.33;20.08;;;4.40;83.60;;;2.16;86.71;95668.69;5002372;28;20661;-68
2020/12/15 00:53:59;;;;;;;32.90;18.15;;;4.40;83.60;;;2.16;86.67;95673.88;5006391;28;20061;-68
2020/12/15 00:56:24;;;;;;;30.88;18.70;;;4.40;83.40;;;2.15;86.78;95677.44;4998591;28;20093;-66
2020/12/15 00:58:50;;;;;;;29.45;18.15;;;4.40;83.60;;;2.15;86.23;95686.03;4998559;28;20034;-66
2020/12/15 01:01:16;;;;;;;31.40;19.15;;;4.40;83.60;;;2.15;86.51;95695.59;5012454;28;20034;-66
2020/12/15 01:03:41;;;;;;;32.17;19.50;;;4.50;83.40;;;2.15;86.28;95688.63;5001588;28;20042;-66
2020/12/15 01:06:07;;;;;;;31.73;18.52;;;4.50;83.40;;;2.17;86.16;95693.66;4991862;28;20045;-68
2020/12/15 01:08:33;;;;;;;31.00;18.65;;;4.50;83.30;;;2.19;86.48;95703.88;4987396;28;20042;-68
2020/12/15 01:10:59;;;;;;;30.42;18.77;;;4.50;83.30;;;2.19;86.39;95704.72;4997894;28;20029;-68
2020/12/15 01:13:24;;;;;;;29.17;18.95;;;4.50;83.20;;;2.20;86.23;95703.75;4981700;28;20026;-67
2020/12/15 01:15:50;;;;;;;30.85;18.77;;;4.50;83.10;;;2.19;86.40;95694.31;5012951;28;20042;-68
2020/12/15 01:18:16;;;;;;;32.80;19.35;;;4.50;83.10;;;2.20;86.11;95701.16;4985171;28;20038;-68
2020/12/15 01:20:41;;;;;;;30.40;18.80;;;4.50;83.10;;;2.20;86.52;95706.34;5010875;28;20044;-68
2020/12/15 01:23:07;;;;;;;29.92;17.98;;;4.60;83.00;;;2.16;86.09;95705.00;4992657;28;20080;-67
2020/12/15 01:25:32;;;;;;;28.35;17.40;;;4.40;83.00;;;2.15;85.79;95705.97;5000786;28;20150;-67
2020/12/15 01:27:58;;;;;;;30.67;18.25;;;4.40;82.80;;;2.14;85.96;95712.13;4999069;28;20038;-67
2020/12/15 01:30:24;;;;;;;30.25;17.63;;;4.40;83.00;;;2.14;86.43;95714.72;5004897;28;20038;-67
2020/12/15 01:32:49;;;;;;;32.03;17.48;;;4.50;83.20;;;2.11;86.36;95712.41;5003110;28;20122;-67
2020/12/15 01:35:18;;;;;;;28.70;17.55;;;4.40;82.90;;;2.10;86.82;95718.56;4994647;28;20101;-68
2020/12/15 01:37:47;;;;;;;29.42;17.13;;;4.40;83.10;;;2.09;86.09;95717.75;4994747;28;20044;-67
2020/12/15 01:40:13;;;;;;;30.42;17.70;;;4.40;83.00;;;2.05;86.45;95721.59;5014621;28;20084;-68
2020/12/15 01:42:38;;;;;;;30.25;18.38;;;4.30;82.90;;;2.07;86.43;95721.47;5020889;28;20448;-67
2020/12/15 01:45:05;;;;;;;29.38;17.38;;;4.40;83.00;;;2.06;86.05;95720.66;4986355;28;20054;-68
2020/12/15 01:47:31;;;;;;;31.65;18.17;;;4.30;83.20;;;2.06;86.07;95723.25;4967134;28;21470;-67
2020/12/15 01:49:57;;;;;;;32.67;19.10;;;4.30;83.10;;;2.08;85.93;95723.09;4987617;28;20068;-67
2020/12/15 01:52:22;;;;;;;30.42;18.42;;;4.40;83.00;;;2.10;86.39;95721.16;4984170;28;20674;-67
2020/12/15 01:54:48;;;;;;;33.00;18.10;;;4.40;83.20;;;2.10;86.37;95723.75;5013492;28;20042;-68
2020/12/15 01:57:13;;;;;;;30.92;18.65;;;4.50;83.20;;;2.11;86.36;95720.19;5004727;28;20040;-68
2020/12/15 01:59:39;;;;;;;29.23;17.92;;;4.40;83.10;;;2.09;86.46;95719.53;4995614;28;20442;-68
2020/12/15 02:02:04;;;;;;;30.38;18.92;;;4.50;83.00;;;2.07;86.19;95722.28;5005426;28;20568;-68
2020/12/15 02:04:30;;;;;;;32.15;18.88;;;4.40;83.00;;;2.07;86.36;95721.47;5010740;28;20125;-67
2020/12/15 02:06:55;;;;;;;30.27;19.23;;;4.30;83.20;;;2.09;86.16;95719.53;5001576;28;20186;-67
2020/12/15 02:09:21;;;;;;;34.13;19.30;;;4.40;83.10;;;2.09;86.26;95719.53;5018065;28;20037;-67
2020/12/15 02:11:47;;;;;;;33.65;19.95;;;4.40;83.10;;;2.10;86.17;95721.97;4983498;28;20049;-68
2020/12/15 02:14:13;;;;;;;37.70;21.27;;;4.40;83.20;;;2.10;86.38;95715.97;5015234;28;20044;-68
2020/12/15 02:16:40;;;;;;;37.83;20.98;;;4.50;83.20;;;2.12;86.49;95714.03;5004539;28;20038;-68
2020/12/15 02:19:06;;;;;;;33.13;20.08;;;4.50;83.00;;;2.12;86.50;95714.03;5004117;28;20030;-68
2020/12/15 02:21:45;;;;;;;31.95;18.73;;;4.40;83.00;;;2.11;86.67;95720.19;5002375;28;20499;-67
2020/12/15 02:24:11;;;;;;;31.70;18.20;;;4.50;82.60;;;2.10;85.70;95710.78;5008708;28;20132;-68
2020/12/15 02:26:36;;;;;;;31.00;17.65;;;4.40;82.60;;;2.09;85.94;95719.53;5006246;28;20129;-67
2020/12/15 02:29:02;;;;;;;30.23;17.92;;;4.50;82.70;;;2.09;86.35;95735.91;5006575;28;20073;-68
2020/12/15 02:31:27;;;;;;;28.80;17.40;;;4.40;82.80;;;2.10;86.20;95734.13;4996370;28;20057;-67
2020/12/15 02:33:53;;;;;;;32.03;17.80;;;4.40;83.00;;;2.10;85.65;95721.16;4997109;28;20035;-68
2020/12/15 02:36:18;;;;;;;30.67;17.35;;;4.40;82.90;;;2.08;86.47;95723.09;4992348;28;20068;-68
2020/12/15 02:38:44;;;;;;;30.02;18.63;;;4.40;82.70;;;2.10;85.78;95726.34;4961358;28;20049;-67
2020/12/15 02:41:09;;;;;;;31.60;18.30;;;4.50;82.70;;;2.11;86.19;95717.59;5016277;28;20049;-68
2020/12/15 02:43:35;;;;;;;30.85;17.33;;;4.40;82.70;;;2.10;86.03;95727.16;4992775;28;20124;-68
2020/12/15 02:46:01;;;;;;;31.42;17.08;;;4.30;82.70;;;2.06;85.78;95728.44;5002189;28;20070;-68
2020/12/15 02:48:26;;;;;;;28.67;17.35;;;4.30;83.10;;;2.06;86.69;95725.03;5013403;28;20033;-67
2020/12/15 02:50:52;;;;;;;32.05;18.45;;;4.30;83.00;;;2.04;86.16;95732.13;5012595;28;20041;-67
2020/12/15 02:53:17;;;;;;;29.02;16.70;;;4.30;83.10;;;2.00;86.19;95726.38;4994444;28;20083;-67
2020/12/15 02:55:43;;;;;;;32.13;16.42;;;4.20;83.20;;;1.95;86.14;95730.38;4992546;28;20042;-67
2020/12/15 02:58:08;;;;;;;28.88;17.00;;;4.00;83.50;;;1.92;86.26;95728.09;5014261;28;20045;-68
2020/12/15 03:00:34;;;;;;;30.08;16.33;;;4.10;83.30;;;1.89;85.95;95728.38;4990935;28;20030;-68
2020/12/15 03:02:59;;;;;;;32.67;15.15;;;4.10;83.60;;;1.88;86.42;95729.34;5009741;28;20649;-67
2020/12/15 03:05:25;;;;;;;27.80;15.20;;;4.10;83.50;;;1.88;85.47;95732.75;4997371;28;20042;-67
2020/12/15 03:07:50;;;;;;;27.50;16.40;;;4.10;83.50;;;1.89;86.11;95724.00;5014952;28;20151;-67
2020/12/15 03:10:16;;;;;;;31.48;17.80;;;4.20;83.30;;;1.89;86.67;95729.19;5012602;28;20030;-67
2020/12/15 03:12:42;;;;;;;32.33;17.85;;;4.10;83.50;;;1.91;86.33;95734.25;4995758;28;20215;-67
2020/12/15 03:15:07;;;;;;;38.78;18.33;;;4.20;83.60;;;1.91;86.11;95736.84;5001463;28;20394;-67
2020/12/15 03:17:33;;;;;;;34.30;17.17;;;4.10;83.50;;;1.90;86.44;95755.94;4980334;28;20041;-67
2020/12/15 03:19:58;;;;;;;30.65;16.15;;;4.10;83.60;;;1.87;85.90;95751.06;5002250;28;20026;-68
2020/12/15 03:22:24;;;;;;;32.22;17.23;;;4.00;83.80;;;1.86;86.05;95742.44;5008615;28;20038;-68
2020/12/15 03:24:49;;;;;;;33.05;17.30;;;4.10;83.90;;;1.85;86.07;95738.22;4993781;28;20646;-68
2020/12/15 03:27:15;;;;;;;44.33;18.10;;;4.10;83.80;;;1.86;86.40;95739.88;5013738;28;20073;-68
2020/12/15 03:29:40;;;;;;;62.67;19.48;;;4.10;83.80;;;1.86;86.56;95752.00;5016870;28;20583;-67
2020/12/15 03:32:06;;;;;;;40.38;18.60;;;4.10;84.00;;;1.84;86.89;95749.56;5006594;28;20129;-67
2020/12/15 03:34:32;;;;;;;43.42;20.27;;;4.10;84.40;;;1.83;86.29;95735.78;4995852;28;20117;-68
2020/12/15 03:36:57;;;;;;;39.03;19.92;;;4.10;84.50;;;1.82;86.64;95744.53;5008742;28;20033;-68
2020/12/15 03:39:23;;;;;;;35.00;18.67;;;4.10;84.50;;;1.83;86.32;95738.38;4998773;28;20033;-68
2020/12/15 03:41:48;;;;;;;35.25;18.35;;;4.10;84.40;;;1.83;86.40;95735.78;5009383;28;20698;-67
2020/12/15 03:44:14;;;;;;;37.88;17.92;;;4.10;84.20;;;1.84;86.42;95721.84;4977813;28;20414;-67
2020/12/15 03:46:39;;;;;;;36.08;18.17;;;4.20;84.10;;;1.85;86.54;95738.22;5011072;28;20521;-67
2020/12/15 03:49:05;;;;;;;37.25;18.52;;;4.20;84.10;;;1.83;86.23;95740.97;5017253;28;20087;-67
2020/12/15 03:51:30;;;;;;;37.60;19.77;;;4.20;84.10;;;1.87;86.95;95745.88;4988748;28;20738;-68
2020/12/15 03:53:56;;;;;;;47.50;18.52;;;4.20;84.20;;;1.90;86.88;95740.38;5011119;28;20494;-68
2020/12/15 03:56:23;;;;;;;40.58;18.23;;;4.20;84.00;;;1.89;86.48;95725.78;5001403;28;20034;-68
2020/12/15 03:58:48;;;;;;;37.45;18.85;;;4.20;84.20;;;1.88;86.26;95743.13;5020360;28;20197;-69
2020/12/15 04:01:14;;;;;;;50.72;19.55;;;4.20;84.30;;;1.89;87.03;95738.75;5007019;28;20084;-68
2020/12/15 04:03:40;;;;;;;39.22;16.90;;;4.20;84.30;;;1.84;86.64;95737.41;5012332;28;20111;-68
2020/12/15 04:06:07;;;;;;;45.63;17.15;;;4.10;84.30;;;1.82;87.32;95749.72;5012923;28;20041;-68
2020/12/15 04:08:33;;;;;;;38.90;17.65;;;4.10;84.20;;;1.83;87.10;95750.53;4989721;28;20041;-67
2020/12/15 04:10:58;;;;;;;30.95;16.83;;;4.00;84.50;;;1.82;86.71;95739.34;4986512;28;20029;-66
2020/12/15 04:13:24;;;;;;;40.53;17.48;;;4.00;84.60;;;1.80;87.13;95738.63;4990910;28;20056;-71
2020/12/15 04:15:49;;;;;;;43.60;17.73;;;4.10;84.70;;;1.80;86.92;95746.41;4996763;28;20064;-67
2020/12/15 04:18:15;;;;;;;37.33;17.35;;;4.10;84.60;;;1.81;87.21;95750.66;5006677;28;20038;-68
2020/12/15 04:20:40;;;;;;;33.08;17.42;;;4.10;84.80;;;1.81;86.88;95729.94;4997088;28;20030;-68
2020/12/15 04:23:06;;;;;;;33.08;16.63;;;4.10;84.70;;;1.79;87.42;95710.25;4996048;28;20043;-68
2020/12/15 04:25:32;;;;;;;31.83;16.70;;;4.10;84.50;;;1.80;87.31;95719.66;5007530;28;20517;-68
2020/12/15 04:27:57;;;;;;;34.65;16.73;;;4.10;84.40;;;1.79;86.85;95744.78;4981111;28;20391;-68
2020/12/15 04:30:23;;;;;;;34.47;16.85;;;4.10;84.50;;;1.80;87.20;95720.47;4990960;28;20041;-68
2020/12/15 04:32:48;;;;;;;32.05;16.85;;;4.10;84.50;;;1.84;87.04;95702.88;5022315;28;20037;-68
2020/12/15 04:35:14;;;;;;;31.88;15.93;;;4.10;84.40;;;1.86;87.21;95707.94;5005999;28;20037;-67
2020/12/15 04:37:40;;;;;;;35.67;17.73;;;4.20;84.40;;;1.85;87.06;95694.16;5002934;28;20054;-68
2020/12/15 04:40:06;;;;;;;39.75;17.15;;;4.10;84.40;;;1.84;86.92;95695.94;5003194;28;20231;-68
2020/12/15 04:42:32;;;;;;;34.10;17.00;;;4.20;84.40;;;1.88;86.76;95700.81;5015903;28;20053;-69
2020/12/15 04:44:58;;;;;;;28.52;15.48;;;4.10;84.40;;;1.83;87.40;95698.66;4988211;28;20074;-65
2020/12/15 04:47:34;;;;;;;34.08;15.65;;;4.10;84.60;;;1.84;88.40;95708.06;5010378;28;20064;-67
2020/12/15 04:50:00;;;;;;;28.83;15.02;;;4.10;84.70;;;1.80;87.26;95689.38;5005718;28;20408;-68
2020/12/15 04:52:54;;;;;;;32.63;15.38;;;4.00;84.60;;;1.76;88.10;95703.59;4996797;28;20639;-68
2020/12/15 04:55:20;;;;;;;34.35;15.50;;;4.00;84.60;;;1.75;86.62;95696.78;4985969;28;20065;-68
2020/12/15 04:57:46;;;;;;;30.20;14.80;;;3.90;84.60;;;1.74;87.37;95674.41;5007625;28;20041;-68
2020/12/15 05:00:12;;;;;;;27.77;14.57;;;4.00;84.70;;;1.75;87.08;95664.84;4995391;28;20187;-68
2020/12/15 05:02:42;;;;;;;30.20;15.75;;;4.00;84.60;;;1.73;87.90;95665.00;4984523;28;20088;-67
2020/12/15 05:05:09;;;;;;;31.47;16.20;;;4.00;84.60;;;1.73;86.72;95636.47;5009578;28;20042;-68
2020/12/15 05:07:42;;;;;;;26.40;14.13;;;4.10;84.70;;;1.74;88.07;95603.59;4991627;28;20088;-68
2020/12/15 05:10:08;;;;;;;39.10;15.63;;;4.00;84.80;;;1.70;87.44;95584.91;4957968;28;20034;-73
2020/12/15 05:12:34;;;;;;;32.42;16.30;;;4.00;84.90;;;1.77;87.20;95596.31;4974075;28;20421;-69
2020/12/15 05:15:01;;;;;;;29.70;16.00;;;4.10;85.50;;;1.80;87.80;95621.94;5005382;28;20049;-66
2020/12/15 05:17:32;;;;;;;36.17;15.45;;;4.10;84.80;;;1.82;87.20;95614.06;4979854;28;20045;-65
2020/12/15 05:19:59;;;;;;;30.77;15.80;;;4.10;84.70;;;1.82;86.71;95603.69;4989255;28;20033;-64
2020/12/15 05:22:35;;;;;;;34.03;17.02;;;4.10;84.80;;;1.81;87.43;95592.50;4988322;28;20616;-65
2020/12/15 05:25:01;;;;;;;32.20;15.88;;;4.10;84.70;;;1.80;87.12;95601.22;4990020;28;20041;-65
2020/12/15 05:27:32;;;;;;;38.45;18.05;;;4.10;84.60;;;1.77;87.56;95575.59;4987406;28;20530;-67
2020/12/15 05:30:11;;;;;;;38.38;16.55;;;4.10;84.80;;;1.73;88.33;95579.44;4990783;28;20057;-66
2020/12/15 05:32:57;;;;;;;44.28;18.08;;;3.90;85.10;;;1.70;88.39;95577.13;4959942;28;20038;-66
2020/12/15 05:35:27;;;;;;;38.97;17.58;;;3.90;85.10;;;1.72;87.68;95583.00;4971755;28;20030;-67
2020/12/15 05:37:57;;;;;;;44.38;20.15;;;3.90;85.10;;;1.71;87.62;95583.97;4988935;28;20034;-67
2020/12/15 05:40:23;;;;;;;41.22;21.42;;;3.90;85.00;;;1.71;87.09;95602.09;5005785;28;20108;-67
2020/12/15 05:42:56;;;;;;;38.97;18.42;;;4.00;84.90;;;1.69;87.24;95618.78;4988633;28;20049;-66
2020/12/15 05:45:22;;;;;;;37.45;18.85;;;3.90;84.80;;;1.67;87.44;95637.06;5004949;28;20062;-67
2020/12/15 05:47:48;;;;;;;34.15;17.92;;;3.90;84.80;;;1.64;87.38;95663.28;5004590;28;20661;-67
2020/12/15 05:50:22;;;;;;;44.05;17.75;;;3.80;85.20;;;1.64;87.27;95702.16;4968477;28;20425;-67
2020/12/15 05:53:05;;;;;;;38.63;17.33;;;3.70;85.50;;;1.62;88.69;95665.19;4977893;28;20033;-66
2020/12/15 05:55:30;;;;;;;36.85;17.73;;;3.70;85.80;;;1.62;87.82;95643.66;5004722;28;20466;-67
2020/12/15 05:57:57;;;;;;;44.42;16.52;;;3.80;85.60;;;1.61;87.61;95639.44;4988446;28;20049;-66
2020/12/15 06:00:27;;;;;;;39.45;16.65;;;3.80;85.20;;;1.58;87.82;95665.63;5001475;28;20589;-67
2020/12/15 06:03:03;;;;;;;36.08;17.25;;;3.70;85.40;;;1.59;88.41;95670.69;4979913;28;20486;-66
2020/12/15 06:05:31;;;;;;;33.13;15.50;;;3.70;85.50;;;1.60;87.43;95667.13;4953248;28;20038;-67
2020/12/15 06:07:59;;;;;;;34.67;16.40;;;3.70;85.80;;;1.60;87.63;95674.91;4983035;28;20386;-67
2020/12/15 06:10:26;;;;;;;39.88;16.40;;;3.80;85.50;;;1.61;87.38;95688.69;5003603;28;20125;-68
2020/12/15 06:12:52;;;;;;;33.97;15.00;;;3.80;85.40;;;1.59;87.36;95686.22;4991590;28;20086;-68
2020/12/15 06:15:18;;;;;;;26.92;14.40;;;3.80;85.60;;;1.60;87.70;95685.28;4985134;28;20042;-68
2020/12/15 06:18:00;;;;;;;29.13;14.77;;;3.80;85.50;;;1.62;88.14;95705.88;4971259;28;20592;-67
2020/12/15 06:20:34;;;;;;;27.92;15.40;;;3.90;85.30;;;1.65;88.20;95690.03;4973568;28;20037;-66
2020/12/15 06:23:00;;;;;;;30.23;14.52;;;3.80;85.40;;;1.65;87.24;95669.28;5007080;28;20069;-65
2020/12/15 06:25:33;;;;;;;26.95;15.02;;;3.90;85.20;;;1.65;88.29;95670.09;5003965;28;20050;-65
2020/12/15 06:28:08;;;;;;;27.63;14.40;;;4.00;84.90;;;1.68;88.19;95672.41;4998690;28;20025;-66
2020/12/15 06:30:57;;;;;;;24.65;13.48;;;4.00;84.90;;;1.70;88.57;95667.88;5005207;28;20026;-66
2020/12/15 06:33:32;;;;;;;32.10;15.18;;;4.10;84.80;;;1.73;88.23;95677.13;4989953;28;20117;-69
2020/12/15 06:35:58;;;;;;;26.85;14.98;;;4.10;85.20;;;1.75;87.28;95670.03;4997128;28;20035;-66
2020/12/15 06:38:23;;;;;;;27.60;14.60;;;4.10;84.80;;;1.73;87.62;95672.78;4987470;28;20030;-68
2020/12/15 06:40:49;;;;;;;26.20;14.20;;;4.10;85.40;;;1.80;87.66;95668.63;4997723;28;20045;-66
2020/12/15 06:43:31;;;;;;;26.83;14.25;;;4.10;85.20;;;1.82;87.93;95661.53;4971976;28;20092;-71
2020/12/15 06:46:06;;;;;;;;;;;4.20;84.70;;;1.86;88.92;95669.03;5006711;28;20383;-72
2020/12/15 06:48:32;;;;;;;28.67;14.57;;;4.20;84.80;;;1.86;87.22;95675.03;4971150;28;20713;-69
2020/12/15 06:50:57;;;;;;;27.55;14.13;;;4.20;84.40;;;1.88;87.41;95680.06;4967473;28;20528;-68
2020/12/15 06:53:54;;;;;;;;;;;;;;;;;;;;;
2020/12/15 06:57:06;;;;;;;33.40;14.55;;;4.20;84.40;;;1.90;87.96;95689.34;4990667;28;20509;-68
2020/12/15 06:59:47;;;;;;;26.92;14.55;;;4.20;84.60;;;1.94;87.75;95697.63;4982342;28;20061;-70
2020/12/15 07:06:27;;;;;;;27.88;13.52;;;4.30;84.30;;;1.96;87.60;95693.13;4976723;28;20116;-68
2020/12/15 07:09:15;;;;;;;26.50;14.05;;;4.30;84.10;;;1.98;88.50;95697.19;4999511;28;20034;-69
2020/12/15 07:12:13;;;;;;;24.90;13.80;;;4.40;84.30;;;1.99;88.38;95693.63;4988086;28;20057;-69
2020/12/15 07:18:12;;;;;;;25.23;13.20;;;4.40;83.90;;;2.01;87.00;95699.50;4983320;28;20117;-69
2020/12/15 07:28:58;;;;;;;21.00;12.35;;;4.40;83.60;;;2.06;87.10;95692.09;4963622;28;20065;-67
2020/12/15 07:36:17;;;;;;;23.75;13.38;;;4.40;83.00;;;2.03;87.54;95689.78;4911903;29;20039;-67
2020/12/15 07:40:00;;;;;;;25.60;13.40;;;4.40;82.70;;;2.05;87.57;95703.44;4902556;28;20123;-68
2020/12/15 07:42:38;;;;;;;22.63;13.02;;;4.40;82.90;;;2.04;86.79;95708.78;4888957;29;20045;-68
2020/12/15 07:45:49;;;;;;;25.33;13.73;;;4.40;82.60;;;2.02;87.51;95703.72;4972898;28;20046;-68
2020/12/15 07:48:27;;;;;;;23.83;13.18;;;4.30;82.80;;;2.01;87.07;95706.47;4993988;28;20045;-69
2020/12/15 07:51:29;;;;;;;;;;;;;;;;;;;;;
2020/12/15 07:53:57;;;;;;;24.77;13.50;;;4.40;82.90;;;2.03;86.64;95725.28;4888075;29;20027;-68
2020/12/15 08:00:34;;;;;;;25.40;13.05;;;4.40;82.60;;;2.03;86.93;95722.69;4978951;28;20064;-63
2020/12/15 08:03:11;;;;;;;22.45;12.80;;;4.40;82.40;;;2.00;87.04;95728.97;4988088;28;20088;-64
2020/12/15 08:08:43;;;;;;;;;;;;;;;;;;;;;
2020/12/15 08:12:16;;;;;;;26.30;14.73;;;4.40;82.50;;;2.02;86.71;95740.03;4990228;28;20433;-63
2020/12/15 08:19:01;;;;;;;36.75;18.63;;;4.40;82.70;;;2.01;87.38;95737.59;5011764;28;20153;-70
2020/12/15 08:22:01;;;;;;;31.48;16.42;;;4.40;82.70;;;2.03;86.79;95744.25;4966173;28;20046;-63
2020/12/15 08:24:50;;;;;;;45.80;25.90;;;4.40;82.50;;;2.08;87.06;95749.03;4975887;28;20041;-63
2020/12/15 08:39:30;;;;;;;;;;;;;;;;;;;;;
2020/12/15 08:45:53;;;;;;;;;;;;;;;;;;;;;
2020/12/15 08:48:55;;;;;;;28.77;15.45;;;4.70;82.40;;;2.25;86.30;95761.19;4944456;28;20035;-64
2020/12/15 08:58:14;;;;;;;25.15;14.65;;;4.70;82.20;;;2.31;86.16;95771.00;4992798;28;20039;-62
2020/12/15 09:01:34;;;;;;;46.53;14.27;;;4.80;81.70;;;2.30;86.31;95784.97;4989463;28;20038;-66
2020/12/15 09:11:02;;;;;;;37.65;15.05;;;4.60;82.00;;;2.25;87.11;95768.97;5015433;28;20033;-62
2020/12/15 09:14:21;;;;;;;29.23;14.90;;;4.60;82.00;;;2.27;87.03;95774.06;5012718;28;20041;-63
2020/12/15 09:16:53;;;;;;;33.03;16.48;;;4.70;82.00;;;2.28;86.51;95763.53;5017385;28;20136;-67
2020/12/15 09:19:36;;;;;;;;;;;;;;;;;;;;;
2020/12/15 09:22:23;;;;;;;31.52;15.38;;;4.80;82.50;;;2.37;86.70;95775.63;4994122;28;20049;-63
2020/12/15 09:29:36;;;;;;;30.80;16.55;;;4.80;82.00;;;2.44;86.22;95792.22;4963436;28;20101;-69
2020/12/15 09:40:10;;;;;;;;;;;;;;;;;;;;;
2020/12/15 09:43:21;;;;;;;31.10;15.90;;;4.90;81.90;;;2.49;86.46;95799.59;4822909;29;20471;-71
2020/12/15 09:46:24;;;;;;;28.38;14.65;;;4.90;81.30;;;2.52;86.35;95790.69;4875025;29;20543;-71
2020/12/15 09:48:53;;;;;;;31.42;15.23;;;4.90;81.50;;;2.48;85.80;95790.16;4884295;29;20135;-70
2020/12/15 09:52:07;;;;;;;;;;;;;;;;;;;;;
2020/12/15 10:02:53;;;;;;;29.60;16.30;;;4.80;81.80;;;2.49;86.18;95806.53;4944460;28;20074;-66
2020/12/15 10:23:29;;;;;;;34.20;16.38;;;5.10;80.80;;;2.65;85.38;95772.97;4991046;28;20494;-68
2020/12/15 10:34:07;;;;;;;;;;;;;;;;;;;;;
2020/12/15 10:51:37;;;;;;;;;;;;;;;;;;;;;
2020/12/15 10:59:30;;;;;;;;;;;;;;;;;;;;;
2020/12/15 11:17:40;;;;;;;33.75;16.73;;;5.90;80.00;;;3.46;84.93;95788.41;4765078;29;21033;-68
2020/12/15 11:24:52;;;;;;;;;;;;;;;;;;;;;
2020/12/15 11:27:33;;;;;;;;;;;;;;;;;;;;;
2020/12/15 11:30:02;;;;;;;30.95;16.05;;;6.10;78.90;;;3.56;84.70;95776.09;4878606;29;20048;-69
2020/12/15 11:36:01;;;;;;;29.25;16.65;;;6.10;78.30;;;3.63;84.62;95764.94;4954598;28;20049;-68
2020/12/15 12:04:46;;;;;;;35.17;22.13;;;6.00;78.30;;;3.64;83.84;95776.97;4829720;29;20070;-73
2020/12/15 12:31:37;;;;;;;28.55;16.65;;;6.40;76.50;;;3.98;83.07;95789.16;4818654;29;20110;-71
2020/12/15 12:35:01;;;;;;;29.52;16.33;;;6.40;77.30;;;4.03;82.66;95791.31;4753901;30;20138;-68
2020/12/15 12:38:56;;;;;;;29.27;16.92;;;6.40;77.00;;;4.06;82.40;95798.78;4781690;29;20051;-71
2020/12/15 12:51:57;;;;;;;25.83;15.57;;;6.30;77.50;;;3.95;83.76;95786.88;4739045;30;20105;-70
2020/12/15 12:54:23;;;;;;;25.60;16.05;;;6.30;77.70;;;3.93;83.23;95807.03;4765050;29;20031;-70
2020/12/15 12:56:48;;;;;;;29.38;17.25;;;6.30;77.40;;;3.91;83.57;95816.78;4947932;28;20028;-68
2020/12/15 12:59:14;;;;;;;33.67;16.33;;;6.30;77.30;;;3.87;83.40;95818.06;5068215;28;20037;-73
2020/12/15 13:01:40;;;;;;;27.20;16.20;;;6.20;77.30;;;3.83;83.28;95812.34;5050704;28;20055;-73
2020/12/15 13:04:06;;;;;;;31.40;19.17;;;6.20;77.60;;;3.82;83.51;95826.31;5018462;28;20037;-71
2020/12/15 13:06:31;;;;;;;30.77;19.55;;;6.20;77.70;;;3.81;83.60;95836.88;5050356;28;20856;-72
2020/12/15 13:08:57;;;;;;;31.10;17.13;;;6.10;77.90;;;3.72;83.22;95837.81;5051919;28;20021;-72
2020/12/15 13:11:23;;;;;;;29.92;17.90;;;6.00;78.20;;;3.66;83.43;95837.47;5031692;28;20076;-68
2020/12/15 13:13:49;;;;;;;26.95;16.17;;;5.90;78.50;;;3.62;83.45;95836.13;5021610;28;20391;-70
2020/12/15 13:16:15;;;;;;;31.75;17.27;;;5.80;78.70;;;3.60;83.65;95827.66;5054076;28;20158;-70
2020/12/15 13:18:41;;;;;;;30.10;17.60;;;5.90;78.80;;;3.60;83.39;95822.44;5064868;28;20123;-68
2020/12/15 13:21:06;;;;;;;29.02;17.17;;;5.90;78.90;;;3.62;83.63;95820.53;5046231;28;20044;-69
2020/12/15 13:23:32;;;;;;;24.50;15.60;;;6.00;78.50;;;3.61;83.60;95828.47;5051060;28;20042;-65
2020/12/15 13:25:57;;;;;;;28.25;16.95;;;5.90;78.50;;;3.61;83.86;95837.06;5068158;28;20043;-65
2020/12/15 13:28:23;;;;;;;29.30;17.67;;;5.90;78.40;;;3.60;83.53;95832.84;5043602;28;20068;-70
2020/12/15 13:30:49;;;;;;;36.03;20.55;;;6.00;78.70;;;3.58;83.65;95842.59;5032016;28;20040;-66
2020/12/15 13:33:14;;;;;;;43.83;25.27;;;5.90;78.90;;;3.55;83.64;95849.88;5030746;28;20608;-68
2020/12/15 13:35:40;;;;;;;48.45;25.48;;;5.90;79.00;;;3.52;83.49;95856.19;5050499;28;20115;-68
2020/12/15 13:38:06;;;;;;;32.65;18.15;;;5.90;78.90;;;3.49;84.03;95843.50;5033701;28;20028;-67
2020/12/15 13:40:31;;;;;;;28.70;17.63;;;5.80;79.20;;;3.50;84.08;95852.13;5016542;28;20111;-72
2020/12/15 13:42:57;;;;;;;33.88;19.50;;;5.80;79.40;;;3.50;83.90;95852.94;5050923;28;20032;-68
2020/12/15 13:45:22;;;;;;;41.67;23.70;;;5.90;79.50;;;3.48;83.59;95843.66;5050736;28;20041;-68
2020/12/15 13:47:48;;;;;;;38.70;23.33;;;5.80;79.30;;;3.44;84.06;95850.13;5049686;28;20454;-67
2020/12/15 13:50:13;;;;;;;32.08;19.70;;;5.70;79.60;;;3.35;83.79;95847.44;5049839;28;20036;-70
2020/12/15 13:52:39;;;;;;;30.02;19.15;;;5.60;79.60;;;3.32;84.03;95834.75;5021096;28;20645;-67
2020/12/15 13:55:04;;;;;;;26.67;15.02;;;5.60;79.80;;;3.30;84.11;95825.47;5049948;28;20029;-68
2020/12/15 13:57:30;;;;;;;29.13;15.50;;;5.60;80.10;;;3.32;83.93;95828.75;5036293;28;20047;-67
2020/12/15 13:59:57;;;;;;;31.08;15.38;;;5.60;80.10;;;3.32;84.23;95828.75;5036063;28;20082;-68
2020/12/15 14:02:22;;;;;;;26.55;15.55;;;5.60;80.20;;;3.32;84.23;95831.34;5048745;28;20029;-68
2020/12/15 14:04:48;;;;;;;24.60;14.50;;;5.60;80.20;;;3.32;84.08;95831.34;5033029;28;20238;-69
2020/12/15 14:07:14;;;;;;;28.05;15.80;;;5.60;80.20;;;3.32;84.19;95826.16;5016534;28;20041;-72
2020/12/15 14:09:40;;;;;;;30.00;16.77;;;5.60;80.30;;;3.30;84.21;95815.09;5050038;28;20429;-73
2020/12/15 14:12:07;;;;;;;28.83;16.45;;;5.60;80.30;;;3.28;84.38;95817.84;5047175;28;20051;-72
2020/12/15 14:14:32;;;;;;;28.00;15.35;;;5.60;80.40;;;3.28;83.87;95825.63;5033418;28;20044;-70
2020/12/15 14:16:58;;;;;;;28.90;16.30;;;5.60;80.50;;;3.27;84.17;95825.78;5037785;28;20513;-71
2020/12/15 14:19:23;;;;;;;28.70;16.08;;;5.60;80.60;;;3.27;84.37;95825.78;5034274;28;20087;-70
2020/12/15 14:21:49;;;;;;;30.08;16.38;;;5.60;80.60;;;3.25;84.16;95817.31;5022300;28;20033;-68
2020/12/15 14:24:21;;;;;;;27.33;16.40;;;5.50;80.90;;;3.23;84.20;95817.47;5049002;28;20380;-70
2020/12/15 14:26:49;;;;;;;27.98;16.67;;;5.50;81.30;;;3.21;84.71;95826.41;5034651;28;20044;-68